Flight Track Log - Related Links

Times and Time Zones

All times are in EDT time to prevent confusion due to time zone crossing. See the AAY876 flight status page for this flight to view local times or setup timezone preferences in your user account.

Time Position Orientation Groundspeed Altitude Reporting Facility
EDT Latitude Longitude Course Direction KTS MPH feet Rate Location/Type
Mon 04:02:09 PM 27.9000 -82.6833 180° South 165 190 700  Level Tampa TRACON
Mon 04:03:14 PM 27.8333 -82.6833 180° South 223 257 2,500 2,333 Climbing Tampa TRACON
Mon 04:04:15 PM 27.8333 -82.7333 270° West 252 290 5,600 2,479 Climbing Tampa TRACON
Mon 04:05:15 PM 27.9000 -82.7500 348° North 287 330 7,500 1,987 Climbing Tampa TRACON
Mon 04:06:52 PM 28.0456 -82.7586 357° North 300 345 10,800 2,064 Climbing Jacksonville Center
Mon 04:07:52 PM 28.1456 -82.7631 358° North 326 375 12,900 2,100 Climbing Jacksonville Center
Mon 04:08:52 PM 28.2500 -82.7725 355° North 355 409 15,000 2,150 Climbing Jacksonville Center
Mon 04:09:52 PM 28.3564 -82.7747 359° North 367 422 17,200 2,000 Climbing Jacksonville Center
Mon 04:10:52 PM 28.4628 -82.7817 357° North 377 434 19,000 1,400 Climbing Jacksonville Center
Mon 04:11:52 PM 28.5778 -82.7886 357° North 388 447 20,000 450 Climbing Jacksonville Center
Mon 04:12:52 PM 28.6675 -82.7933 357° North 398 458 19,900 -50 Descending Jacksonville Center
Mon 04:13:52 PM 28.8011 -82.7978 358° North 398 458 19,900 50 Level Jacksonville Center
Mon 04:14:52 PM 28.9136 -82.8072 356° North 403 464 20,000 300 Climbing Jacksonville Center
Mon 04:15:52 PM 29.0244 -82.8189 355° North 403 464 20,500 1,100 Climbing Jacksonville Center
Mon 04:16:52 PM 29.1328 -82.8617 341° North 403 464 22,200 1,600 Climbing Jacksonville Center
Mon 04:17:52 PM 29.2436 -82.9092 339° North 416 479 23,700 1,450 Climbing Jacksonville Center
Mon 04:18:52 PM 29.3519 -82.9592 338° Northwest 422 486 25,100 1,250 Climbing Jacksonville Center
Mon 04:19:52 PM 29.4669 -83.0119 338° Northwest 435 501 26,200 1,300 Climbing Jacksonville Center
Mon 04:20:52 PM 29.5817 -83.0644 338° Northwest 450 518 27,700 1,200 Climbing Jacksonville Center
Mon 04:21:52 PM 29.6922 -83.1150 338° Northwest 450 518 28,600 900 Climbing Jacksonville Center
Mon 04:22:52 PM 29.8131 -83.1678 339° North 455 524 29,500 1,100 Climbing Jacksonville Center
Mon 04:23:52 PM 29.9300 -83.2233 338° Northwest 455 524 30,800 1,200 Climbing Jacksonville Center
Mon 04:24:52 PM 30.0508 -83.2764 339° North 455 524 31,900 1,100 Climbing Jacksonville Center
Mon 04:25:52 PM 30.1719 -83.3297 339° North 455 524 33,000 1,150 Climbing Jacksonville Center
Mon 04:26:52 PM 30.2906 -83.3833 339° North 455 524 34,200 1,100 Climbing Jacksonville Center
Mon 04:27:52 PM 30.4094 -83.4394 338° Northwest 455 524 35,200 850 Climbing Jacksonville Center
Mon 04:28:52 PM 30.5261 -83.4931 338° Northwest 455 524 35,900 350 Climbing Jacksonville Center
Mon 04:29:52 PM 30.6447 -83.5469 339° North 460 529 35,900 50 Level Jacksonville Center
Mon 04:30:52 PM 30.7614 -83.6008 338° Northwest 453 521 36,000  Climbing Jacksonville Center
Mon 04:31:52 PM 30.8761 -83.6550 338° Northwest 453 521 35,900 -50 Descending Jacksonville Center
Mon 04:32:52 PM 30.9864 -83.7069 338° Northwest 448 516 35,900 50 Level Jacksonville Center
Mon 04:33:52 PM 31.1008 -83.7611 338° Northwest 443 510 36,000 50 Climbing Jacksonville Center
Mon 04:34:52 PM 31.2153 -83.8156 338° Northwest 438 504 36,000  Level Jacksonville Center
Mon 04:36:29 PM 31.4000 -83.9028 338° Northwest 440 506 36,000  Level Atlanta Center
Mon 04:37:29 PM 31.5169 -83.9586 338° Northwest 440 506 36,000  Level Atlanta Center
Mon 04:38:29 PM 31.6381 -83.9875 349° North 440 506 36,000  Level Atlanta Center
Mon 04:39:29 PM 31.7611 -84.0144 349° North 440 506 36,000  Level Atlanta Center
Mon 04:40:29 PM 31.8822 -84.0414 349° North 440 506 36,000  Level Atlanta Center
Mon 04:41:29 PM 32.0139 -84.0683 350° North 440 506 36,000  Level Atlanta Center
Mon 04:42:29 PM 32.1347 -84.0978 348° North 440 506 36,000  Level Atlanta Center
Mon 04:43:29 PM 32.2539 -84.1247 349° North 440 506 36,000  Level Atlanta Center
Mon 04:44:29 PM 32.3747 -84.1494 350° North 435 501 36,000  Level Atlanta Center
Mon 04:45:29 PM 32.4939 -84.1792 348° North 435 501 36,000  Level Atlanta Center
Mon 04:46:29 PM 32.6147 -84.2064 349° North 430 495 36,000  Level Atlanta Center
Mon 04:47:29 PM 32.7336 -84.2314 350° North 430 495 36,000  Level Atlanta Center
Mon 04:48:29 PM 32.8381 -84.2614 346° North 430 495 36,000  Level Atlanta Center
Mon 04:49:29 PM 32.9611 -84.2839 351° North 430 495 36,000  Level Atlanta Center
Mon 04:50:29 PM 33.0822 -84.3139 348° North 430 495 36,000  Level Atlanta Center
Mon 04:51:29 PM 33.1989 -84.3392 350° North 430 495 36,000  Level Atlanta Center
Mon 04:57:07 PM 33.8896 -84.4983 348° North 430 495 36,000  Level FlightAware ADS-B (KDZJ)
Mon 04:57:47 PM 33.9698 -84.5178 349° North 440 506 36,000  Level FlightAware ADS-B (KDZJ)
Mon 04:58:27 PM 34.0493 -84.5371 349° North 442 509 36,000  Level FlightAware ADS-B (KDZJ)
Mon 04:59:08 PM 34.1320 -84.5571 349° North 443 510 36,000  Level FlightAware ADS-B (KDZJ)
Mon 04:59:47 PM 34.2113 -84.5765 349° North 444 511 36,000  Level FlightAware ADS-B (KDZJ)
Mon 05:00:27 PM 34.2907 -84.5959 349° North 444 511 36,000  Level FlightAware ADS-B (KDZJ)
Mon 05:01:08 PM 34.3730 -84.6161 349° North 444 511 36,000  Level FlightAware ADS-B (KDZJ)
Mon 05:01:47 PM 34.4525 -84.6355 349° North 445 512 36,000  Level FlightAware ADS-B (KDZJ)
Mon 05:02:28 PM 34.5347 -84.6558 349° North 446 513 36,000  Level FlightAware ADS-B (KDZJ)
Mon 05:03:07 PM 34.6155 -84.6757 349° North 447 514 36,000  Level FlightAware ADS-B (KDZJ)
Mon 05:03:47 PM 34.6974 -84.6960 348° North 440 506 36,000  Level FlightAware ADS-B (KDZJ)
Mon 05:04:28 PM 34.7784 -84.7161 348° North 440 506 36,000  Level FlightAware ADS-B (KDZJ)
Mon 05:05:08 PM 34.8601 -84.7365 348° North 447 514 36,000  Level FlightAware ADS-B (KDZJ)
Mon 05:05:11 PM 34.8645 -84.7375 348° North 447 514 36,000  Level FlightAware ADS-B (KMDQ)
Mon 05:05:48 PM 34.9409 -84.7566 349° North 446 513 36,000  Level FlightAware ADS-B (KDZJ)
Mon 05:06:28 PM 35.0231 -84.7770 349° North 445 512 36,000  Level FlightAware ADS-B (KDZJ)
Mon 05:07:01 PM 35.0870 -84.7931 348° North 444 511 36,000  Level FlightAware ADS-B (KMDQ)
Mon 05:07:40 PM 35.1656 -84.8127 348° North 443 510 36,000  Level FlightAware ADS-B (KMDQ)
Mon 05:08:20 PM 35.1904 -84.8189 348° North 441 507 36,000  Level FlightAware ADS-B (KMDQ)
Mon 05:08:50 PM 35.3055 -84.8480 348° North 441 507 36,000  Level FlightAware ADS-B (KMDQ)
Mon 05:11:02 PM 35.5646 -84.9133 348° North 441 507 36,000  Level FlightAware ADS-B (KMDQ)
Mon 05:11:41 PM 35.6355 -84.9313 348° North 440 506 36,000  Level FlightAware ADS-B (KMDQ)
Mon 05:12:22 PM 35.7295 -84.9551 348° North 439 505 36,000  Level FlightAware ADS-B (KMDQ)
Mon 05:13:00 PM 35.8034 -84.9739 348° North 434 499 36,000  Level FlightAware ADS-B (KMDQ)
Mon 05:13:41 PM 35.8842 -84.9946 348° North 431 496 36,000  Level FlightAware ADS-B (KMDQ)
Mon 05:14:22 PM 35.9653 -85.0154 348° North 431 496 36,000  Level FlightAware ADS-B (KMDQ)
Mon 05:15:02 PM 36.0434 -85.0352 348° North 432 497 36,000  Level FlightAware ADS-B (KMDQ)
Mon 05:15:41 PM 36.1193 -85.0547 348° North 433 498 36,000  Level FlightAware ADS-B (KMDQ)
Mon 05:16:41 PM 36.2369 -85.0850 348° North 434 499 36,000  Level FlightAware ADS-B (KMDQ)
Mon 05:17:16 PM 36.3073 -85.1031 348° North 434 499 36,000  Level FlightAware ADS-B (KMDQ)
Mon 05:18:07 PM 36.4060 -85.1286 348° North 434 499 36,000  Level FlightAware ADS-B
Mon 05:19:08 PM 36.5220 -85.1585 348° North 434 499 36,000  Level FlightAware ADS-B
Mon 05:20:09 PM 36.6344 -85.1877 348° North 436 502 36,000  Level FlightAware ADS-B
Mon 05:20:47 PM 36.7223 -85.2106 348° North 436 502 36,000  Level FlightAware ADS-B
Mon 05:22:39 PM 36.8972 -85.2564 348° North 437 503 36,000  Level FlightAware ADS-B (KMDQ)
Mon 05:24:01 PM 37.1069 -85.3115 348° North 440 506 36,000  Level FlightAware ADS-B
Mon 05:24:31 PM 37.1669 -85.3273 348° North 441 507 36,000  Level FlightAware ADS-B
Mon 05:25:01 PM 37.2266 -85.3430 348° North 441 507 36,000  Level FlightAware ADS-B
Mon 05:25:32 PM 37.2869 -85.3580 352° North 441 507 36,000  Level FlightAware ADS-B
Mon 05:26:10 PM 37.3642 -85.3629 359° North 443 510 36,000  Level FlightAware ADS-B
Mon 05:26:47 PM 37.4387 -85.3648 359° North 443 510 36,000  Level FlightAware ADS-B
Mon 05:27:17 PM 37.5019 -85.3668 359° North 444 511 36,000  Level FlightAware ADS-B
Mon 05:28:08 PM 37.6073 -85.3700 359° North 445 512 36,000  Level FlightAware ADS-B
Mon 05:28:47 PM 37.6892 -85.3728 359° North 444 511 36,000  Level FlightAware ADS-B
Mon 05:29:02 PM 37.7209 -85.3734 North 445 512 36,000  Level FlightAware ADS-B
Mon 05:29:33 PM 37.7823 -85.3693 North 447 514 36,000  Level FlightAware ADS-B
Mon 05:30:10 PM 37.8583 -85.3629 North 448 516 36,000  Level FlightAware ADS-B
Mon 05:30:46 PM 37.9320 -85.3566 North 449 517 36,000  Level FlightAware ADS-B
Mon 05:31:18 PM 37.9986 -85.3510 North 450 518 36,000  Level FlightAware ADS-B
Mon 05:32:03 PM 38.0932 -85.3428 North 449 517 36,000  Level FlightAware ADS-B
Mon 05:32:48 PM 38.1888 -85.3344 North 449 517 36,000  Level FlightAware ADS-B
Mon 05:33:18 PM 38.2505 -85.3291 North 449 517 36,000  Level FlightAware ADS-B
Mon 05:33:33 PM 38.2672 -85.3289 353° North 447 514 36,000  Level FlightAware ADS-B
Mon 05:34:02 PM 38.3380 -85.3546 331° Northwest 445 512 36,000  Level FlightAware ADS-B
Mon 05:35:10 PM 38.4583 -85.4453 330° Northwest 441 507 36,000  Level FlightAware ADS-B
Mon 05:35:58 PM 38.5472 -85.4960 338° Northwest 442 509 36,000  Level FlightAware ADS-B
Mon 05:37:20 PM 38.7030 -85.5761 338° Northwest 438 504 36,000  Level FlightAware ADS-B (KCVG)
Mon 05:37:49 PM 38.7499 -85.6009 337° Northwest 440 506 36,000  Level FlightAware ADS-B (KCVG)
Mon 05:38:29 PM 38.8332 -85.6450 338° Northwest 390 449 36,000  Level FlightAware ADS-B
Mon 05:39:11 PM 38.9115 -85.6859 338° Northwest 314 361 36,000  Level FlightAware ADS-B
Mon 05:40:23 PM 38.7499 -85.6009 339° North 441 507 36,000  Level FlightAware ADS-B (KCVG)
Mon 05:43:08 PM 39.3527 -85.9156 338° Northwest 442 509 36,000  Level FlightAware ADS-B
Mon 05:45:04 PM 39.5650 -86.0658 321° Northwest 436 502 36,000  Level FlightAware ADS-B
Mon 05:45:34 PM 39.6123 -86.1176 319° Northwest 429 494 36,000  Level FlightAware ADS-B
Mon 05:46:19 PM 39.6747 -86.1874 320° Northwest 427 491 36,000  Level FlightAware ADS-B
Mon 05:47:05 PM 39.7484 -86.2683 320° Northwest 425 489 36,000  Level FlightAware ADS-B
Mon 05:47:35 PM 39.7929 -86.3174 320° Northwest 422 486 36,000  Level FlightAware ADS-B
Mon 05:48:20 PM 39.8607 -86.3922 320° Northwest 421 484 36,000  Level FlightAware ADS-B
Mon 05:49:20 PM 39.9496 -86.4905 320° Northwest 424 488 36,000  Level FlightAware ADS-B
Mon 05:50:34 PM 40.0605 -86.6135 319° Northwest 427 491 36,000  Level FlightAware ADS-B
Mon 05:51:28 PM 40.1302 -86.7123 309° West 422 486 36,000  Level FlightAware ADS-B
Mon 05:52:01 PM 40.1736 -86.7813 310° West 423 487 36,000  Level FlightAware ADS-B
Mon 05:53:11 PM 40.2605 -86.9190 309° West 421 484 36,000  Level FlightAware ADS-B
Mon 05:53:45 PM 40.3020 -86.9853 309° West 420 483 36,000  Level FlightAware ADS-B
Mon 05:54:20 PM 40.3452 -87.0543 309° West 418 481 36,000  Level FlightAware ADS-B
Mon 05:54:51 PM 40.3737 -87.0999 309° West 417 480 36,000 -222 Level FlightAware ADS-B
Mon 05:55:41 PM 40.4445 -87.2133 309° West 419 482 35,700 -519 Descending FlightAware ADS-B
Mon 05:56:12 PM 40.4827 -87.2745 309° West 422 486 35,300 -944 Descending FlightAware ADS-B
Mon 05:57:29 PM 40.5781 -87.4287 309° West 426 490 34,000 -982 Descending FlightAware ADS-B
Mon 05:58:02 PM 40.6192 -87.4952 309° West 415 478 33,500 -952 Descending FlightAware ADS-B
Mon 05:58:32 PM 40.6544 -87.5523 309° West 405 466 33,000 -984 Descending FlightAware ADS-B
Mon 05:59:03 PM 40.6871 -87.6055 309° West 398 458 32,500 -900 Descending FlightAware ADS-B
Mon 05:59:52 PM 40.7460 -87.7014 309° West 382 440 31,800 -911 Descending FlightAware ADS-B
Mon 06:00:22 PM 40.7788 -87.7551 309° West 378 435 31,300 -1,000 Descending FlightAware ADS-B
Mon 06:00:52 PM 40.8119 -87.8093 309° West 380 437 30,800 -1,000 Descending FlightAware ADS-B
Mon 06:01:22 PM 40.8448 -87.8631 309° West 377 434 30,300 -800 Descending FlightAware ADS-B
Mon 06:01:52 PM 40.8783 -87.9183 309° West 381 438 30,000 -300 Descending FlightAware ADS-B
Mon 06:02:22 PM 40.9092 -87.9691 309° West 384 442 30,000  Level FlightAware ADS-B
Mon 06:02:53 PM 40.9450 -88.0280 309° West 381 438 30,000  Level FlightAware ADS-B
Mon 06:03:28 PM 40.9843 -88.0928 309° West 379 436 30,000  Level FlightAware ADS-B
Mon 06:04:12 PM 41.0255 -88.1609 308° West 378 435 30,000  Level FlightAware ADS-B
Mon 06:04:43 PM 41.0651 -88.2266 309° West 381 438 30,000  Level FlightAware ADS-B
Mon 06:05:23 PM 41.1089 -88.2992 309° West 382 440 30,000  Level FlightAware ADS-B
Mon 06:06:12 PM 41.1638 -88.3907 309° West 381 438 30,000 -750 Level FlightAware ADS-B
Mon 06:06:43 PM 41.1968 -88.4456 308° West 378 435 29,000 -2,206 Descending FlightAware ADS-B
Mon 06:07:20 PM 41.2377 -88.5142 308° West 367 422 27,500 -2,261 Descending FlightAware ADS-B
Mon 06:07:52 PM 41.2686 -88.5660 308° West 362 417 26,400 -2,400 Descending FlightAware ADS-B
Mon 06:08:30 PM 41.3100 -88.6356 308° West 360 414 24,700 -2,494 Descending FlightAware ADS-B
Mon 06:09:21 PM 41.3549 -88.7113 308° West 354 407 22,700 -2,242 Descending FlightAware ADS-B
Mon 06:10:01 PM 41.4027 -88.7918 308° West 345 397 21,300 -1,926 Descending FlightAware ADS-B
Mon 06:10:42 PM 41.4165 -88.8152 308° West 335 386 20,100 -2,494 Descending FlightAware ADS-B
Mon 06:11:18 PM 41.4764 -88.9170 308° West 339 390 18,100 -2,865 Descending FlightAware ADS-B
Mon 06:12:33 PM 41.5524 -89.0462 308° West 353 406 14,800 -2,218 Descending FlightAware ADS-B
Mon 06:13:17 PM 41.5468 -89.0367 308° West 342 394 13,700 -1,215 Descending FlightAware ADS-B
Mon 06:13:52 PM 41.6275 -89.1745 310° West 305 351 13,200 -706 Descending FlightAware ADS-B
Mon 06:14:08 PM 41.6431 -89.1907 339° North 296 341 13,100 -150 Descending FlightAware ADS-B
Mon 06:14:32 PM 41.6712 -89.2002 359° North 287 330 13,100 188 Level FlightAware ADS-B
Mon 06:14:40 PM 41.6818 -89.1991 North 277 319 13,200 -1,034 Climbing FlightAware ADS-B
Mon 06:15:30 PM 41.7483 -89.1863 North 273 314 12,100 -2,022 Descending FlightAware ADS-B
Mon 06:16:12 PM 41.7972 -89.1758 North 272 313 10,100 -2,423 Descending Chicago Center
Mon 06:17:14 PM 41.8728 -89.1422 18° North 284 327 7,900 -2,226 Descending Chicago Center
Mon 06:18:16 PM 41.9442 -89.1042 22° Northeast 276 318 5,500 -2,177 Descending Chicago Center
Mon 06:19:18 PM 42.0144 -89.0683 21° North 272 313 3,400 -1,258 Descending Chicago Center
Mon 06:20:20 PM 42.0914 -89.0375 17° North 259 298 2,900 -435 Descending Chicago Center
Mon 06:21:22 PM 42.1439 -89.0161 17° North 239 275 2,500 -286 Descending Chicago Center
Mon 06:22:26 PM 42.2119 -88.9961 12° North 225 259 2,300 -145 Descending Chicago Center
Mon 06:23:26 PM 42.2397 -89.0325 316° Northwest 197 227 2,200 -100 Descending Chicago Center

Login

Don't have an account? Register now (free) for customized features, flight alerts, and more!